createdAt,value
2023-03-08T00:01:20.588Z,87.09
2023-03-08T00:03:47.660Z,87.27
2023-03-08T00:06:16.476Z,87.25
2023-03-08T00:08:43.155Z,87.18
2023-03-08T00:11:12.452Z,87.18
2023-03-08T00:13:39.647Z,87.13
2023-03-08T00:16:08.447Z,86.77
2023-03-08T00:18:36.262Z,87.12
2023-03-08T00:21:05.138Z,87.07
2023-03-08T00:23:31.669Z,86.80
2023-03-08T00:25:58.761Z,87.42
2023-03-08T00:28:25.988Z,87.10
2023-03-08T00:31:00.253Z,87.25
2023-03-08T00:33:27.061Z,87.46
2023-03-08T00:36:02.145Z,87.63
2023-03-08T00:38:30.387Z,87.03
2023-03-08T00:40:56.928Z,87.28
2023-03-08T00:43:23.722Z,87.13
2023-03-08T00:45:53.190Z,87.55
2023-03-08T00:48:20.775Z,87.22
2023-03-08T00:50:47.654Z,87.36
2023-03-08T00:53:14.869Z,87.41
2023-03-08T00:55:49.503Z,87.25
2023-03-08T00:58:16.227Z,87.06
2023-03-08T01:00:42.835Z,87.27
2023-03-08T01:03:09.377Z,87.35
2023-03-08T01:05:47.591Z,87.27
2023-03-08T01:08:15.223Z,87.70
2023-03-08T01:10:48.021Z,87.78
2023-03-08T01:13:14.515Z,87.49
2023-03-08T01:15:41.074Z,87.48
2023-03-08T01:18:07.603Z,87.42
2023-03-08T01:20:34.227Z,87.65
2023-03-08T01:23:00.766Z,87.49
2023-03-08T01:25:27.864Z,87.11
2023-03-08T01:27:54.346Z,87.52
2023-03-08T01:30:21.250Z,87.93
2023-03-08T01:32:48.080Z,87.72
2023-03-08T01:35:14.560Z,87.76
2023-03-08T01:37:41.120Z,87.64
2023-03-08T01:40:16.756Z,87.87
2023-03-08T01:42:43.244Z,87.79
2023-03-08T01:45:47.381Z,88.10
2023-03-08T01:48:15.977Z,88.10
2023-03-08T01:50:45.857Z,87.98
2023-03-08T01:53:13.971Z,87.42
2023-03-08T01:55:41.244Z,87.74
2023-03-08T01:58:08.065Z,87.71
2023-03-08T02:00:34.536Z,87.60
2023-03-08T02:03:07.452Z,87.97
2023-03-08T02:05:36.640Z,87.59
2023-03-08T02:08:05.645Z,87.33
2023-03-08T02:10:32.326Z,87.36
2023-03-08T02:12:58.964Z,87.30
2023-03-08T02:15:25.530Z,87.59
2023-03-08T02:17:52.072Z,87.65
2023-03-08T02:20:25.845Z,87.69
2023-03-08T02:22:53.306Z,87.88
2023-03-08T02:25:27.297Z,87.95
2023-03-08T02:27:54.607Z,87.60
2023-03-08T02:30:27.964Z,87.68
2023-03-08T02:32:54.461Z,87.48
2023-03-08T02:35:20.982Z,87.88
2023-03-08T02:37:47.804Z,87.63
2023-03-08T02:40:14.693Z,87.31
2023-03-08T02:42:41.527Z,87.85
2023-03-08T02:45:08.939Z,87.72
2023-03-08T02:47:35.836Z,87.62
2023-03-08T02:50:02.301Z,87.97
2023-03-08T02:52:28.814Z,87.54
2023-03-08T02:54:55.298Z,87.44
2023-03-08T02:57:21.946Z,87.54
2023-03-08T02:59:49.058Z,87.28
2023-03-08T03:02:15.620Z,87.58
2023-03-08T03:04:42.255Z,87.34
2023-03-08T03:07:09.012Z,87.48
2023-03-08T03:09:35.982Z,87.05
2023-03-08T03:12:02.518Z,87.23
2023-03-08T03:14:29.930Z,86.91
2023-03-08T03:16:56.701Z,86.87
2023-03-08T03:19:23.207Z,87.01
2023-03-08T03:21:49.698Z,86.82
2023-03-08T03:24:16.336Z,87.27
2023-03-08T03:26:42.883Z,86.96
2023-03-08T03:29:09.482Z,86.98
2023-03-08T03:31:36.101Z,87.23
2023-03-08T03:34:02.805Z,87.21
2023-03-08T03:36:29.442Z,87.12
2023-03-08T03:38:55.919Z,87.01
2023-03-08T03:41:23.599Z,87.11
2023-03-08T03:43:51.321Z,86.84
2023-03-08T03:46:20.449Z,87.24
2023-03-08T03:48:47.621Z,87.14
2023-03-08T03:51:17.530Z,87.19
2023-03-08T03:53:44.582Z,87.40
2023-03-08T03:56:15.189Z,87.39
2023-03-08T03:58:42.634Z,87.08
2023-03-08T04:01:24.639Z,87.14
2023-03-08T04:03:51.826Z,87.55
2023-03-08T04:06:22.361Z,87.23
2023-03-08T04:08:49.201Z,87.30
2023-03-08T04:11:19.288Z,87.16
2023-03-08T04:13:46.336Z,87.03
2023-03-08T04:16:26.786Z,86.71
2023-03-08T04:19:00.761Z,86.95
2023-03-08T04:21:28.245Z,86.99
2023-03-08T04:23:55.105Z,87.05
2023-03-08T04:26:22.277Z,87.01
2023-03-08T04:28:49.167Z,87.28
2023-03-08T04:31:16.268Z,87.40
2023-03-08T04:33:42.867Z,87.13
2023-03-08T04:36:10.093Z,87.04
2023-03-08T04:38:36.664Z,87.33
2023-03-08T04:41:11.957Z,87.13
2023-03-08T04:43:40.202Z,87.10
2023-03-08T04:46:07.872Z,86.89
2023-03-08T04:48:34.421Z,87.28
2023-03-08T04:51:03.380Z,87.02
2023-03-08T04:53:31.399Z,87.28
2023-03-08T04:56:00.529Z,87.45
2023-03-08T04:58:30.664Z,87.26
2023-03-08T05:00:57.275Z,87.19
2023-03-08T05:03:23.911Z,87.45
2023-03-08T05:05:56.036Z,87.19
2023-03-08T05:08:23.117Z,86.95
2023-03-08T05:10:55.155Z,87.09
2023-03-08T05:13:21.649Z,87.17
2023-03-08T05:15:48.235Z,87.33
2023-03-08T05:18:14.789Z,87.25
2023-03-08T05:20:41.963Z,87.66
2023-03-08T05:23:08.484Z,87.50
2023-03-08T05:25:34.955Z,87.65
2023-03-08T05:28:01.456Z,87.52
2023-03-08T05:30:27.961Z,87.48
2023-03-08T05:32:54.493Z,87.55
2023-03-08T05:35:21.433Z,87.53
2023-03-08T05:37:47.927Z,87.51
2023-03-08T05:40:14.446Z,87.48
2023-03-08T05:42:40.961Z,87.25
2023-03-08T05:45:08.417Z,87.54
2023-03-08T05:47:35.006Z,87.16
2023-03-08T05:50:01.581Z,87.27
2023-03-08T05:52:29.830Z,87.50
2023-03-08T05:54:56.299Z,87.58
2023-03-08T05:57:22.833Z,87.52
2023-03-08T05:59:49.434Z,86.96
2023-03-08T06:02:15.970Z,87.39
2023-03-08T06:04:42.609Z,87.64
2023-03-08T06:07:09.264Z,87.90
2023-03-08T06:09:35.722Z,88.38
2023-03-08T06:12:02.166Z,88.61
2023-03-08T06:14:28.704Z,87.88
2023-03-08T06:16:55.196Z,88.11
2023-03-08T06:19:21.737Z,87.73
2023-03-08T06:21:48.229Z,87.32
2023-03-08T06:24:15.436Z,86.75
2023-03-08T06:26:41.906Z,86.61
2023-03-08T06:29:08.480Z,86.23
2023-03-08T06:31:34.958Z,86.18
2023-03-08T06:34:01.445Z,86.53
2023-03-08T06:36:27.988Z,85.63
2023-03-08T06:38:54.757Z,86.03
2023-03-08T06:41:21.911Z,86.28
2023-03-08T06:43:48.862Z,86.96
2023-03-08T06:46:18.116Z,86.96
2023-03-08T06:48:45.603Z,86.79
2023-03-08T06:51:12.475Z,86.66
2023-03-08T06:53:39.405Z,87.41
2023-03-08T06:56:08.633Z,87.67
2023-03-08T06:58:36.688Z,87.39
2023-03-08T07:01:05.787Z,87.32
2023-03-08T07:03:33.310Z,86.50
2023-03-08T07:06:01.487Z,86.29
2023-03-08T07:08:28.184Z,86.55
2023-03-08T07:10:54.798Z,85.80
2023-03-08T07:13:23.871Z,85.92
2023-03-08T07:15:51.353Z,84.60
2023-03-08T07:18:18.937Z,85.18
2023-03-08T07:20:45.807Z,85.16
2023-03-08T07:23:12.305Z,84.97
2023-03-08T07:25:40.230Z,84.95
2023-03-08T07:28:06.759Z,84.36
2023-03-08T07:30:33.357Z,85.54
2023-03-08T07:32:59.929Z,85.40
2023-03-08T07:35:26.457Z,85.42
2023-03-08T07:37:53.123Z,85.54
2023-03-08T07:40:19.846Z,85.19
2023-03-08T07:42:46.801Z,85.19
2023-03-08T07:45:14.287Z,85.06
2023-03-08T07:47:41.529Z,85.13
2023-03-08T07:50:09.367Z,84.36
2023-03-08T07:52:35.880Z,83.98
2023-03-08T07:55:03.605Z,84.29
2023-03-08T07:57:30.142Z,84.17
2023-03-08T07:59:56.648Z,84.75
2023-03-08T08:02:23.197Z,84.03
2023-03-08T08:04:50.751Z,84.40
2023-03-08T08:07:18.049Z,84.61
2023-03-08T08:09:44.561Z,84.92
2023-03-08T08:12:11.345Z,85.08
2023-03-08T08:14:37.924Z,85.26
2023-03-08T08:17:04.758Z,85.39
2023-03-08T08:19:32.140Z,85.56
2023-03-08T08:21:59.430Z,86.15
2023-03-08T08:24:26.944Z,86.06
2023-03-08T08:26:53.829Z,85.70
2023-03-08T08:29:20.992Z,86.26
2023-03-08T08:31:47.588Z,85.84
2023-03-08T08:34:15.561Z,85.54
2023-03-08T08:36:42.066Z,85.70
2023-03-08T08:39:08.759Z,85.64
2023-03-08T08:41:35.268Z,85.57
2023-03-08T08:44:01.755Z,85.58
2023-03-08T08:46:28.885Z,85.81
2023-03-08T08:48:55.983Z,86.02
2023-03-08T08:51:22.662Z,86.16
2023-03-08T08:53:49.589Z,85.45
2023-03-08T08:56:28.402Z,85.89
2023-03-08T08:58:56.915Z,85.96
2023-03-08T09:01:26.898Z,86.28
2023-03-08T09:03:54.224Z,86.00
2023-03-08T09:06:23.092Z,86.35
2023-03-08T09:08:54.966Z,86.11
2023-03-08T09:11:22.124Z,86.68
2023-03-08T09:13:48.804Z,86.52
2023-03-08T09:16:22.307Z,86.48
2023-03-08T09:18:49.115Z,86.51
2023-03-08T09:21:16.617Z,86.79
2023-03-08T09:23:43.835Z,86.68
2023-03-08T09:26:10.894Z,87.50
2023-03-08T09:28:38.612Z,87.12
2023-03-08T09:31:12.898Z,87.06
2023-03-08T09:33:41.934Z,86.64
2023-03-08T09:36:08.815Z,87.08
2023-03-08T09:38:35.573Z,86.63
2023-03-08T09:41:14.769Z,87.24
2023-03-08T09:43:59.406Z,87.15
2023-03-08T09:46:34.125Z,88.30
2023-03-08T09:49:03.215Z,87.65
2023-03-08T09:51:36.198Z,88.55
2023-03-08T09:54:08.257Z,88.22
2023-03-08T09:56:46.669Z,87.86
2023-03-08T09:59:23.979Z,88.16
2023-03-08T10:01:56.651Z,87.68
2023-03-08T10:04:35.779Z,87.28
2023-03-08T10:07:16.417Z,87.12
2023-03-08T10:09:55.848Z,86.88
2023-03-08T10:12:40.660Z,87.36
2023-03-08T10:15:20.537Z,87.36
2023-03-08T10:17:55.908Z,87.84
2023-03-08T10:20:28.193Z,87.91
2023-03-08T10:23:18.346Z,88.19
2023-03-08T10:25:45.817Z,88.17
2023-03-08T10:28:15.750Z,89.27
2023-03-08T10:30:52.583Z,88.14
2023-03-08T10:33:24.510Z,88.03
2023-03-08T10:36:06.670Z,87.35
2023-03-08T10:38:35.158Z,87.37
2023-03-08T10:41:12.986Z,87.74
2023-03-08T10:43:44.969Z,87.62
2023-03-08T10:46:14.465Z,87.52
2023-03-08T10:48:41.432Z,86.80
2023-03-08T10:51:17.845Z,86.17
2023-03-08T10:54:04.631Z,85.54
2023-03-08T10:56:45.194Z,86.43
2023-03-08T10:59:33.047Z,86.64
2023-03-08T11:02:18.373Z,85.63
2023-03-08T11:05:00.824Z,85.82
2023-03-08T11:07:33.492Z,85.99
2023-03-08T11:10:12.310Z,86.07
2023-03-08T11:12:39.529Z,86.47
2023-03-08T11:15:17.316Z,86.50
2023-03-08T11:18:04.148Z,85.63
2023-03-08T11:20:45.441Z,85.86
2023-03-08T11:23:24.101Z,86.06
2023-03-08T11:26:06.708Z,86.39
2023-03-08T11:29:06.099Z,86.07
2023-03-08T11:31:47.440Z,86.33
2023-03-08T11:34:16.939Z,86.56
2023-03-08T11:36:53.217Z,86.55
2023-03-08T11:39:31.259Z,86.58
2023-03-08T11:42:06.513Z,86.37
2023-03-08T11:44:51.299Z,85.83
2023-03-08T11:47:38.397Z,85.79
2023-03-08T11:50:10.048Z,85.65
2023-03-08T11:52:53.504Z,85.67
2023-03-08T11:55:20.799Z,85.48
2023-03-08T11:57:56.066Z,85.47
2023-03-08T12:00:30.691Z,85.55
2023-03-08T12:03:05.468Z,85.66
2023-03-08T12:05:41.149Z,86.32
2023-03-08T12:08:14.175Z,86.04
2023-03-08T12:10:56.767Z,86.22
2023-03-08T12:13:38.425Z,87.00
2023-03-08T12:16:29.249Z,86.81
2023-03-08T12:19:20.525Z,86.61
2023-03-08T12:22:05.462Z,86.61
2023-03-08T12:24:41.131Z,86.58
2023-03-08T12:27:22.857Z,87.31
2023-03-08T12:29:55.395Z,87.25
2023-03-08T12:32:23.687Z,87.30
2023-03-08T12:35:01.576Z,87.00
2023-03-08T12:37:29.945Z,87.55
2023-03-08T12:40:05.862Z,87.57
2023-03-08T12:42:40.406Z,87.16
2023-03-08T12:45:06.858Z,87.41
2023-03-08T12:47:33.387Z,87.41
2023-03-08T12:50:09.986Z,87.19
2023-03-08T12:52:36.778Z,86.54
2023-03-08T12:55:33.579Z,87.03
2023-03-08T12:58:02.797Z,86.98
2023-03-08T13:00:32.813Z,86.59
2023-03-08T13:03:19.533Z,86.47
2023-03-08T13:05:49.842Z,86.34
2023-03-08T13:08:16.410Z,85.94
2023-03-08T13:11:09.271Z,86.09
2023-03-08T13:13:45.849Z,85.64
2023-03-08T13:16:15.247Z,86.12
2023-03-08T13:18:46.552Z,86.40
2023-03-08T13:21:28.239Z,86.83
2023-03-08T13:24:10.218Z,86.96
2023-03-08T13:26:53.214Z,86.54
2023-03-08T13:29:21.044Z,86.77
2023-03-08T13:31:48.721Z,86.44
2023-03-08T13:34:25.867Z,86.92
2023-03-08T13:36:52.616Z,86.93
2023-03-08T13:39:22.640Z,86.51
2023-03-08T13:41:49.369Z,86.59
2023-03-08T13:44:24.823Z,86.95
2023-03-08T13:46:55.151Z,87.17
2023-03-08T13:49:32.476Z,87.28
2023-03-08T13:52:05.202Z,87.20
2023-03-08T13:54:37.809Z,87.03
2023-03-08T13:57:17.241Z,87.02
2023-03-08T13:59:58.890Z,87.24
2023-03-08T14:02:28.375Z,86.96
2023-03-08T14:04:55.869Z,86.79
2023-03-08T14:07:32.102Z,87.66
2023-03-08T14:09:59.297Z,88.08
2023-03-08T14:12:29.924Z,88.02
2023-03-08T14:15:03.645Z,87.25
2023-03-08T14:17:34.115Z,88.06
2023-03-08T14:20:07.002Z,88.11
2023-03-08T14:22:40.306Z,87.26
2023-03-08T14:25:21.864Z,87.20
2023-03-08T14:27:48.918Z,87.45
2023-03-08T14:30:27.177Z,87.23
2023-03-08T14:32:59.708Z,87.28
2023-03-08T14:35:29.998Z,87.55
2023-03-08T14:37:57.123Z,87.36
2023-03-08T14:40:28.813Z,87.78
2023-03-08T14:42:58.286Z,87.91
2023-03-08T14:45:33.977Z,87.25
2023-03-08T14:48:03.050Z,87.51
2023-03-08T14:50:32.795Z,87.32
2023-03-08T14:53:02.478Z,87.45
2023-03-08T14:55:32.337Z,87.47
2023-03-08T14:58:11.665Z,87.54
2023-03-08T15:00:49.188Z,87.15
2023-03-08T15:03:15.646Z,87.65
2023-03-08T15:05:42.267Z,87.49
2023-03-08T15:08:13.257Z,87.48
2023-03-08T15:10:41.198Z,87.75
2023-03-08T15:13:14.597Z,87.33
2023-03-08T15:15:41.285Z,87.63
2023-03-08T15:18:07.918Z,87.41
2023-03-08T15:20:35.584Z,87.29
2023-03-08T15:23:06.135Z,87.58
2023-03-08T15:25:38.622Z,87.42
2023-03-08T15:28:06.510Z,87.03
2023-03-08T15:30:33.444Z,87.15
2023-03-08T15:33:01.743Z,86.92
2023-03-08T15:35:28.241Z,87.16
2023-03-08T15:37:54.701Z,86.88
2023-03-08T15:40:27.493Z,87.12
2023-03-08T15:42:54.677Z,87.19
2023-03-08T15:45:21.612Z,87.39
2023-03-08T15:48:08.260Z,87.27
2023-03-08T15:50:34.988Z,87.47
2023-03-08T15:53:01.557Z,87.61
2023-03-08T15:55:29.937Z,87.84
2023-03-08T15:57:56.618Z,87.97
2023-03-08T16:00:24.356Z,88.17
2023-03-08T16:02:52.722Z,88.56
2023-03-08T16:05:22.978Z,88.08
2023-03-08T16:07:57.830Z,88.36
2023-03-08T16:10:24.756Z,88.08
2023-03-08T16:12:51.535Z,88.42
2023-03-08T16:15:18.787Z,88.14
2023-03-08T16:17:45.710Z,88.35
2023-03-08T16:20:14.465Z,88.39
2023-03-08T16:22:41.377Z,88.31
2023-03-08T16:25:09.185Z,88.13
2023-03-08T16:27:38.105Z,87.96
2023-03-08T16:30:05.981Z,88.37
2023-03-08T16:32:32.708Z,87.69
2023-03-08T16:35:01.808Z,88.20
2023-03-08T16:37:28.645Z,88.60
2023-03-08T16:39:57.596Z,88.30
2023-03-08T16:42:24.612Z,88.65
2023-03-08T16:44:54.086Z,88.57
2023-03-08T16:47:24.854Z,88.77
2023-03-08T16:49:51.411Z,88.71
2023-03-08T16:52:18.632Z,88.61
2023-03-08T16:54:45.608Z,88.51
2023-03-08T16:57:19.021Z,89.08
2023-03-08T16:59:46.771Z,89.07
2023-03-08T17:02:15.636Z,88.65
2023-03-08T17:04:46.327Z,88.43
2023-03-08T17:07:13.485Z,88.62
2023-03-08T17:09:41.751Z,88.51
2023-03-08T17:12:09.652Z,88.63
2023-03-08T17:14:37.330Z,88.43
2023-03-08T17:17:05.421Z,88.87
2023-03-08T17:19:32.107Z,88.57
2023-03-08T17:21:58.887Z,88.89
2023-03-08T17:24:28.343Z,88.76
2023-03-08T17:26:55.800Z,88.75
2023-03-08T17:29:23.006Z,89.03
2023-03-08T17:31:51.163Z,88.68
2023-03-08T17:34:20.944Z,89.22
2023-03-08T17:36:48.092Z,89.32
2023-03-08T17:39:15.568Z,89.40
2023-03-08T17:41:43.122Z,89.09
2023-03-08T17:44:09.681Z,89.72
2023-03-08T17:46:36.514Z,89.56
2023-03-08T17:49:03.964Z,89.64
2023-03-08T17:51:32.913Z,89.36
2023-03-08T17:54:01.288Z,89.65
2023-03-08T17:56:30.484Z,89.64
2023-03-08T17:58:59.585Z,89.87
2023-03-08T18:01:29.493Z,90.32
2023-03-08T18:03:58.128Z,90.13
2023-03-08T18:06:32.408Z,90.34
2023-03-08T18:09:01.520Z,90.35
2023-03-08T18:11:29.116Z,89.95
2023-03-08T18:13:56.369Z,90.39
2023-03-08T18:16:23.907Z,90.14
2023-03-08T18:18:51.139Z,90.13
2023-03-08T18:21:18.789Z,90.02
2023-03-08T18:23:48.089Z,90.49
2023-03-08T18:26:17.024Z,90.43
2023-03-08T18:28:43.773Z,90.73
2023-03-08T18:31:15.187Z,90.65
2023-03-08T18:33:44.772Z,90.66
2023-03-08T18:36:11.717Z,90.69
2023-03-08T18:38:39.020Z,90.53
2023-03-08T18:41:22.677Z,90.60
2023-03-08T18:43:51.591Z,90.43
2023-03-08T18:46:18.722Z,90.96
2023-03-08T18:51:17.682Z,90.91
2023-03-08T18:53:44.507Z,90.77
2023-03-08T18:56:12.142Z,91.12
2023-03-08T18:58:38.859Z,91.01
2023-03-08T19:01:14.072Z,90.88
2023-03-08T19:03:41.767Z,90.87
2023-03-08T19:06:09.186Z,90.74
2023-03-08T19:08:36.904Z,91.14
2023-03-08T19:11:12.516Z,91.37
2023-03-08T19:13:39.237Z,91.26
2023-03-08T19:16:07.357Z,91.15
2023-03-08T19:18:34.372Z,91.25
2023-03-08T19:21:01.313Z,91.16
2023-03-08T19:23:28.221Z,90.88
2023-03-08T19:26:13.820Z,91.37
2023-03-08T19:28:40.663Z,90.85
2023-03-08T19:31:16.542Z,91.34
2023-03-08T19:33:49.883Z,91.28
2023-03-08T19:36:17.163Z,91.42
2023-03-08T19:38:44.277Z,91.19
2023-03-08T19:41:11.364Z,91.42
2023-03-08T19:43:37.972Z,91.17
2023-03-08T19:46:04.921Z,90.78
2023-03-08T19:48:32.177Z,90.98
2023-03-08T19:50:59.120Z,90.99
2023-03-08T19:53:25.957Z,90.95
2023-03-08T19:55:54.373Z,91.09
2023-03-08T19:58:23.660Z,90.81
2023-03-08T20:00:50.567Z,91.03
2023-03-08T20:03:17.891Z,90.90
2023-03-08T20:05:47.464Z,91.25
2023-03-08T20:08:14.522Z,91.30
2023-03-08T20:10:42.135Z,91.38
2023-03-08T20:13:08.716Z,91.57
2023-03-08T20:15:35.372Z,91.32
2023-03-08T20:18:01.882Z,91.36
2023-03-08T20:20:28.612Z,91.60
2023-03-08T20:22:55.210Z,91.49
2023-03-08T20:25:21.729Z,91.55
2023-03-08T20:27:48.213Z,91.01
2023-03-08T20:30:15.041Z,91.35
2023-03-08T20:32:41.650Z,91.36
2023-03-08T20:35:12.838Z,91.27
2023-03-08T20:37:39.661Z,91.52
2023-03-08T20:40:07.316Z,91.47
2023-03-08T20:42:36.890Z,91.23
2023-03-08T20:45:06.828Z,91.39
2023-03-08T20:47:33.371Z,91.56
2023-03-08T20:50:00.000Z,91.46
2023-03-08T20:52:26.493Z,91.78
2023-03-08T20:54:53.028Z,91.77
2023-03-08T20:57:19.537Z,92.11
2023-03-08T20:59:46.011Z,91.96
2023-03-08T21:02:12.691Z,91.44
2023-03-08T21:04:39.166Z,92.10
2023-03-08T21:07:06.761Z,91.74
2023-03-08T21:09:34.037Z,91.73
2023-03-08T21:12:00.604Z,91.74
2023-03-08T21:14:29.064Z,91.35
2023-03-08T21:16:55.645Z,91.46
2023-03-08T21:19:23.923Z,92.01
2023-03-08T21:21:51.453Z,91.70
2023-03-08T21:24:21.237Z,91.78
2023-03-08T21:26:47.759Z,91.62
2023-03-08T21:29:17.728Z,91.72
2023-03-08T21:31:48.449Z,91.82
2023-03-08T21:34:17.072Z,91.59
2023-03-08T21:36:44.744Z,91.60
2023-03-08T21:39:12.280Z,91.31
2023-03-08T21:41:41.417Z,91.34
2023-03-08T21:44:12.675Z,91.76
2023-03-08T21:46:40.731Z,91.48
2023-03-08T21:49:07.923Z,91.88
2023-03-08T21:51:34.817Z,91.81
2023-03-08T21:54:01.372Z,91.59
2023-03-08T21:56:27.920Z,91.89
2023-03-08T21:58:55.509Z,91.98
2023-03-08T22:01:25.756Z,91.73
2023-03-08T22:03:53.144Z,91.91
2023-03-08T22:06:20.572Z,91.92
2023-03-08T22:08:47.868Z,91.73
2023-03-08T22:11:15.307Z,91.72
2023-03-08T22:13:42.946Z,92.06
2023-03-08T22:16:09.829Z,92.23
2023-03-08T22:18:36.378Z,92.42
2023-03-08T22:21:02.919Z,92.36
2023-03-08T22:23:29.464Z,92.24
2023-03-08T22:25:55.998Z,92.16
2023-03-08T22:28:22.572Z,91.99
2023-03-08T22:30:49.197Z,92.24
2023-03-08T22:33:15.745Z,92.40
2023-03-08T22:35:46.800Z,92.32
2023-03-08T22:38:13.520Z,92.31
2023-03-08T22:40:43.319Z,92.34
2023-03-08T22:43:10.676Z,92.65
2023-03-08T22:45:37.377Z,92.56
2023-03-08T22:48:04.667Z,92.28
2023-03-08T22:50:31.178Z,92.00
2023-03-08T22:52:57.700Z,92.18
2023-03-08T22:55:24.226Z,92.31
2023-03-08T22:57:50.717Z,92.33
2023-03-08T23:00:17.404Z,92.42
2023-03-08T23:02:45.902Z,92.39
2023-03-08T23:05:18.121Z,92.46
2023-03-08T23:07:45.424Z,92.25
2023-03-08T23:10:13.348Z,92.22
2023-03-08T23:12:40.632Z,92.52
2023-03-08T23:15:08.727Z,91.94
2023-03-08T23:17:35.976Z,92.31
2023-03-08T23:20:03.964Z,92.72
2023-03-08T23:22:30.636Z,92.27
2023-03-08T23:24:57.264Z,92.58
2023-03-08T23:27:23.975Z,92.88
2023-03-08T23:29:53.841Z,92.45
2023-03-08T23:32:20.639Z,92.60
2023-03-08T23:34:47.352Z,92.25
2023-03-08T23:37:13.996Z,92.32
2023-03-08T23:39:40.572Z,92.40
2023-03-08T23:42:07.337Z,92.67
2023-03-08T23:44:33.901Z,92.64
2023-03-08T23:47:00.779Z,92.61
2023-03-08T23:49:27.416Z,92.13
2023-03-08T23:51:54.070Z,92.51
2023-03-08T23:54:20.619Z,92.50
2023-03-08T23:56:47.202Z,92.67
2023-03-08T23:59:21.971Z,92.68
